Gustavus Airport

About
Name: Gustavus Airport
Identifier:  GST/PAGS
Serves:  Gustavus, Alaska
Owner:  State of Alaska DOT&PF - Southeastern Region
Public/Private:  Public
Local Time:  18. Aug 06:05 AKDT
Description: Gustavus Airport is a state owned, public use airport located in Gustavus, a city in the Hoonah-Angoon Census Area of the U.S. state of Alaska. Scheduled airline service is subsidized by the Essential Air Service program.
Source: Wikipedia
Location
Runways
Identifier Length (m/ft) Surface
2/20 3,146/3,146 Asphalt
11/29 6,721/6,721 Asphalt
Flights per Day
1 flights
Distance: 294km (183mi)
Punctuality
38% (1 flights per day delayed)
Delay Average: 71 minutes
Current Weather
 14 C (Humidity: 26%)
  8kt (14km/h / 9mph) from 350°
  16km (10 mi.)
 
 METAR PAGS 181256Z AUTO 35008KT 10SM CLR 14/M05 A2993 RMK AO2 SLP133 T01391050

Current Flights

Departures
Number Departure To Airline
Arrivals
Number Arrival From Airline
 AS71 17:35 +9  Juneau  Alaska Airlines

Current Delays

Departures
N/A
Arrivals
N/A

Destinations

Top Destinations
Airport Flights
per week
Seats
per week
  Juneau (JNU) 13 1,707 1 243

Airlines & Planes

Top Airlines
Airline Flights
per Day
Seats
per Day
  Alaska Airlines 1 243
Top Plane Types
Model Flights Seats
Boeing B737-700 2.0/day 243/day 243.86666666666667